Time;durP1;ratioP1;P1;durP2;ratioP2;P2;SDS_P1;SDS_P2;PMS_P1;PMS_P2;Temp;Humidity;BMP_temperature;BMP_pressure;BME280_temperature;BME280_humidity;BME280_pressure;Samples;Min_cycle;Max_cycle;Signal;HPM_P1;HPM_P2
2023/02/08 00:01:52;;;;;;;1.48;1.38;;;;;;;20.35;31.25;104039.31;5064388;28;20037;-74
2023/02/08 00:04:18;;;;;;;1.20;1.20;;;;;;;20.23;31.50;104031.25;5064100;28;20040;-74
2023/02/08 00:06:43;;;;;;;1.63;1.52;;;;;;;20.31;31.36;104036.03;5060226;28;20051;-73
2023/02/08 00:09:09;;;;;;;1.52;1.42;;;;;;;20.43;31.04;104040.47;5057868;28;20064;-74
2023/02/08 00:11:35;;;;;;;1.65;1.55;;;;;;;20.36;31.12;104036.53;5059724;28;20051;-74
2023/02/08 00:14:01;;;;;;;1.67;1.58;;;;;;;20.27;31.12;104025.72;5049863;28;21677;-74
2023/02/08 00:16:26;;;;;;;1.70;1.60;;;;;;;20.24;31.36;104037.38;5058410;28;20032;-74
2023/02/08 00:18:52;;;;;;;1.48;1.38;;;;;;;20.25;31.14;104033.78;5060141;28;20048;-73
2023/02/08 00:21:18;;;;;;;2.00;1.83;;;;;;;20.20;31.19;104023.50;5062921;28;20061;-74
2023/02/08 00:23:45;;;;;;;1.45;1.42;;;;;;;20.17;31.36;104017.59;5059392;28;20123;-74
2023/02/08 00:26:11;;;;;;;1.50;1.40;;;;;;;20.25;31.05;104015.25;5055291;28;20035;-73
2023/02/08 00:28:37;;;;;;;1.60;1.50;;;;;;;20.25;30.96;104014.41;5047270;28;20036;-74
2023/02/08 00:31:04;;;;;;;1.80;1.70;;;;;;;20.12;31.17;104007.34;5058061;28;20043;-74
2023/02/08 00:33:29;;;;;;;1.52;1.50;;;;;;;20.05;31.33;104010.47;5058253;28;20091;-73
2023/02/08 00:35:59;;;;;;;1.65;1.55;;;;;;;20.09;31.11;104004.03;5057391;28;20671;-71
2023/02/08 00:38:25;;;;;;;;;;;;;;;20.10;31.17;104013.66;5060935;28;20036;-73
2023/02/08 00:40:50;;;;;;;1.30;1.30;;;;;;;19.95;31.30;104012.06;5059588;28;21708;-74
2023/02/08 00:43:16;;;;;;;1.70;1.60;;;;;;;20.02;31.05;104016.84;5063531;28;20068;-73
2023/02/08 00:45:42;;;;;;;1.65;1.55;;;;;;;19.95;31.30;104002.34;5061670;28;20044;-74
2023/02/08 00:48:07;;;;;;;1.80;1.70;;;;;;;19.71;31.67;104002.16;5054231;28;20028;-73
2023/02/08 00:50:33;;;;;;;1.60;1.50;;;;;;;19.97;31.24;104008.38;5057843;28;20471;-74
2023/02/08 00:52:59;;;;;;;1.70;1.60;;;;;;;19.91;31.39;104006.13;5058607;28;20103;-74
2023/02/08 00:55:25;;;;;;;1.70;1.60;;;;;;;19.76;31.33;104008.03;5057515;28;20459;-73
2023/02/08 00:57:50;;;;;;;1.63;1.52;;;;;;;19.78;31.39;104006.13;5056517;28;20029;-74
2023/02/08 01:00:16;;;;;;;1.50;1.50;;;;;;;19.77;31.40;104006.22;5075157;28;20091;-74
2023/02/08 01:02:41;;;;;;;1.60;1.50;;;;;;;19.75;31.34;104002.81;5054195;28;20093;-74
2023/02/08 01:05:07;;;;;;;1.70;1.60;;;;;;;19.71;31.50;104012.75;5059948;28;20466;-73
2023/02/08 01:07:36;;;;;;;1.60;1.50;;;;;;;19.73;31.37;104010.00;5048915;28;20052;-73
2023/02/08 01:10:02;;;;;;;1.35;1.25;;;;;;;19.57;31.74;104016.34;5056943;28;20517;-74
2023/02/08 01:12:28;;;;;;;1.30;1.30;;;;;;;19.55;31.66;104020.84;5059429;28;20047;-74
2023/02/08 01:14:53;;;;;;;1.75;1.65;;;;;;;19.41;31.74;104002.38;5047908;28;20044;-74
2023/02/08 01:17:19;;;;;;;1.60;1.50;;;;;;;19.71;31.51;104014.53;5059656;28;20379;-74
2023/02/08 01:19:44;;;;;;;1.35;1.35;;;;;;;19.69;31.47;104009.38;5061064;28;20028;-73
2023/02/08 01:22:10;;;;;;;1.70;1.60;;;;;;;19.86;31.28;104016.16;5062372;28;20078;-74
2023/02/08 01:24:35;;;;;;;1.20;1.20;;;;;;;19.75;31.38;104016.91;5061477;28;20033;-74
2023/02/08 01:27:02;;;;;;;1.63;1.52;;;;;;;19.79;31.22;104025.47;5060666;28;20131;-74
2023/02/08 01:29:28;;;;;;;1.60;1.50;;;;;;;19.77;31.30;104014.16;5075474;28;20044;-74
2023/02/08 01:31:54;;;;;;;1.30;1.30;;;;;;;19.77;31.36;104011.50;5057784;28;20477;-74
2023/02/08 01:34:19;;;;;;;1.40;1.30;;;;;;;19.77;31.33;104017.66;5060922;28;20106;-73
2023/02/08 01:36:45;;;;;;;1.55;1.45;;;;;;;19.69;31.43;104017.28;5060721;28;20032;-74
2023/02/08 01:39:10;;;;;;;1.13;1.13;;;;;;;19.74;31.35;104017.81;5062164;28;20056;-74
2023/02/08 01:41:42;;;;;;;1.50;1.40;;;;;;;19.69;31.22;104006.72;5059699;28;20051;-74
2023/02/08 01:44:10;;;;;;;1.20;1.20;;;;;;;19.68;31.50;104018.25;5061618;28;20066;-74
2023/02/08 01:46:44;;;;;;;1.10;1.10;;;;;;;19.70;31.50;104016.34;5058323;28;20037;-74
2023/02/08 01:49:30;;;;;;;1.30;1.30;;;;;;;19.69;31.42;104005.88;5060616;28;20036;-74
2023/02/08 01:52:01;;;;;;;1.33;1.30;;;;;;;19.68;31.46;104006.81;5058732;28;20044;-74
2023/02/08 01:54:35;;;;;;;1.20;1.20;;;;;;;19.74;31.38;104001.97;5059448;28;20051;-74
2023/02/08 01:57:01;;;;;;;1.45;1.35;;;;;;;19.72;31.42;103998.56;5055010;28;20506;-75
2023/02/08 01:59:35;;;;;;;1.45;1.38;;;;;;;19.64;31.54;104002.69;5059968;28;20033;-74
2023/02/08 02:02:02;;;;;;;1.90;1.80;;;;;;;19.68;31.46;104006.81;5059540;28;20114;-74
2023/02/08 02:04:27;;;;;;;1.60;1.50;;;;;;;19.68;31.42;104007.66;5059738;28;20051;-74
2023/02/08 02:06:56;;;;;;;1.20;1.20;;;;;;;19.68;31.63;104006.81;5057984;28;20033;-74
2023/02/08 02:09:38;;;;;;;1.30;1.30;;;;;;;19.73;31.37;104010.00;5061495;28;20052;-74
2023/02/08 02:12:07;;;;;;;1.85;1.75;;;;;;;19.59;31.56;104016.22;5061525;28;20119;-74
2023/02/08 02:14:33;;;;;;;1.48;1.42;;;;;;;19.61;31.48;104014.31;5057678;28;20043;-74
2023/02/08 02:17:00;;;;;;;1.40;1.40;;;;;;;19.60;31.58;104013.47;5050850;28;20041;-74
2023/02/08 02:19:39;;;;;;;1.70;1.60;;;;;;;19.64;31.52;104010.63;5066910;28;20625;-74
2023/02/08 02:22:31;;;;;;;1.20;1.20;;;;;;;19.63;31.47;104006.28;5056166;28;20044;-74
2023/02/08 02:25:20;;;;;;;1.50;1.40;;;;;;;19.55;31.60;104018.19;5058841;28;20145;-72
2023/02/08 02:28:28;;;;;;;1.73;1.63;;;;;;;19.52;31.60;104020.16;5061671;28;20036;-72
2023/02/08 02:31:33;;;;;;;1.40;1.30;;;;;;;19.51;31.54;104008.75;5062741;28;20247;-71
2023/02/08 02:34:11;;;;;;;1.40;1.40;;;;;;;19.53;31.50;103992.78;4983754;28;20038;-71
2023/02/08 02:36:59;;;;;;;1.65;1.55;;;;;;;19.50;31.73;103995.63;4986652;28;20033;-73
2023/02/08 02:39:27;;;;;;;1.40;1.30;;;;;;;19.57;31.49;103989.91;5041993;28;20040;-74
2023/02/08 02:45:39;;;;;;;1.30;1.30;;;;;;;19.43;31.70;103986.44;5060294;28;20537;-71
2023/02/08 02:48:12;;;;;;;1.70;1.60;;;;;;;19.43;31.63;103979.34;5059646;28;20817;-72
2023/02/08 02:50:47;;;;;;;1.48;1.38;;;;;;;19.42;31.61;103980.28;5056998;28;20033;-71
2023/02/08 02:53:47;;;;;;;1.35;1.25;;;;;;;19.44;31.62;103983.69;5056576;28;20486;-72
2023/02/08 02:56:36;;;;;;;1.10;1.10;;;;;;;19.58;31.40;103980.16;5062987;28;20372;-74
2023/02/08 02:59:05;;;;;;;1.40;1.30;;;;;;;19.66;31.33;103983.13;5059914;28;20044;-73
2023/02/08 03:01:31;;;;;;;1.23;1.23;;;;;;;19.66;31.40;103983.13;5059687;28;20041;-74
2023/02/08 03:03:57;;;;;;;1.75;1.65;;;;;;;19.69;31.39;103979.44;5060147;28;20051;-75
2023/02/08 03:06:56;;;;;;;1.77;1.67;;;;;;;19.67;31.37;103982.19;5060937;28;20054;-74
2023/02/08 03:09:23;;;;;;;;;;;;;;;19.72;31.34;103985.34;5049015;28;20536;-74
2023/02/08 03:11:59;;;;;;;1.50;1.40;;;;;;;19.73;31.33;103976.47;5056884;28;19916;-74
2023/02/08 03:14:24;;;;;;;1.50;1.35;;;;;;;19.70;31.27;103968.75;5058503;28;20134;-74
2023/02/08 03:16:55;;;;;;;1.45;1.40;;;;;;;19.63;31.47;103970.13;5046850;28;20971;-74
2023/02/08 03:19:37;;;;;;;1.70;1.60;;;;;;;19.68;31.37;103967.16;5060219;28;20120;-74
2023/02/08 03:22:41;;;;;;;1.40;1.35;;;;;;;19.67;31.22;103962.81;5056968;28;20040;-74
2023/02/08 03:25:11;;;;;;;1.27;1.27;;;;;;;19.64;31.45;103963.88;5020714;28;20056;-74
2023/02/08 03:27:58;;;;;;;1.40;1.40;;;;;;;19.59;31.31;103963.34;5054832;28;20038;-74
2023/02/08 03:30:50;;;;;;;1.00;1.00;;;;;;;19.63;31.31;103964.84;5050658;28;20040;-71
2023/02/08 03:33:22;;;;;;;1.30;1.30;;;;;;;19.63;31.33;103971.94;5056003;28;20029;-72
2023/02/08 03:35:56;;;;;;;1.08;1.08;;;;;;;19.60;31.36;103973.81;5057670;28;20033;-72
2023/02/08 03:38:30;;;;;;;1.15;1.13;;;;;;;19.64;31.31;103969.19;5058948;28;20051;-74
2023/02/08 03:40:59;;;;;;;1.33;1.23;;;;;;;19.59;31.36;103969.50;5055920;28;20033;-74
2023/02/08 03:43:35;;;;;;;1.13;1.10;;;;;;;19.70;31.22;103970.56;5056213;28;20036;-74
2023/02/08 03:46:23;;;;;;;1.30;1.30;;;;;;;19.58;31.37;103964.31;5049946;28;20117;-74
2023/02/08 03:48:58;;;;;;;1.25;1.15;;;;;;;19.54;31.44;103968.06;5057888;28;20033;-74
2023/02/08 03:51:26;;;;;;;1.50;1.40;;;;;;;19.57;31.28;103968.75;5058755;28;20123;-74
2023/02/08 03:53:55;;;;;;;1.40;1.30;;;;;;;19.58;31.12;103966.94;5058317;28;20124;-74
2023/02/08 03:56:47;;;;;;;1.55;1.45;;;;;;;19.50;31.17;103958.63;5059374;28;20799;-74
2023/02/08 03:59:19;;;;;;;1.63;1.55;;;;;;;19.50;31.25;103961.28;5048910;28;20078;-74
2023/02/08 04:01:56;;;;;;;1.23;1.23;;;;;;;19.46;31.45;103973.00;5057265;28;20040;-74
2023/02/08 04:04:31;;;;;;;1.52;1.42;;;;;;;19.46;31.46;103965.94;5055404;28;20044;-74
2023/02/08 04:06:57;;;;;;;1.77;1.67;;;;;;;19.49;31.45;103965.72;5057061;28;22763;-74
2023/02/08 04:09:23;;;;;;;1.50;1.40;;;;;;;19.51;31.39;103961.16;5056340;28;20057;-74
2023/02/08 04:11:48;;;;;;;1.10;1.10;;;;;;;19.46;31.48;103970.38;5059139;28;20060;-74
2023/02/08 04:14:14;;;;;;;1.23;1.23;;;;;;;19.49;31.30;103972.78;5055419;28;20388;-74
2023/02/08 04:16:39;;;;;;;1.50;1.42;;;;;;;19.47;31.39;103972.06;5058365;28;20055;-74
2023/02/08 04:19:05;;;;;;;1.30;1.25;;;;;;;19.39;31.40;103971.69;5046813;28;20897;-74
2023/02/08 04:21:31;;;;;;;1.33;1.23;;;;;;;19.43;31.40;103965.28;5058516;28;20060;-74
2023/02/08 04:23:56;;;;;;;1.50;1.40;;;;;;;19.32;31.48;103960.69;5057451;28;20040;-74
2023/02/08 04:26:24;;;;;;;1.25;1.25;;;;;;;19.33;31.48;103943.88;5057543;28;20048;-74
2023/02/08 04:28:50;;;;;;;1.35;1.35;;;;;;;19.42;31.50;103951.22;5057529;28;20035;-74
2023/02/08 04:31:15;;;;;;;1.40;1.30;;;;;;;19.38;31.41;103946.22;5058439;28;20071;-74
2023/02/08 04:33:41;;;;;;;1.50;1.40;;;;;;;19.32;31.57;103952.78;5057029;28;20082;-74
2023/02/08 04:36:06;;;;;;;1.38;1.27;;;;;;;19.27;31.51;103944.31;5056279;28;20052;-74
2023/02/08 04:38:32;;;;;;;1.20;1.20;;;;;;;19.30;31.60;103944.09;5059636;28;20048;-74
2023/02/08 04:40:57;;;;;;;1.60;1.55;;;;;;;19.28;31.61;103948.63;5056875;28;20078;-74
2023/02/08 04:43:23;;;;;;;1.42;1.40;;;;;;;19.27;31.51;103952.22;5058211;28;20474;-74
2023/02/08 04:45:49;;;;;;;1.42;1.33;;;;;;;19.33;31.43;103950.03;5058387;28;20025;-74
2023/02/08 04:48:15;;;;;;;1.40;1.30;;;;;;;19.39;31.48;103945.28;5051997;28;20093;-74
2023/02/08 04:50:41;;;;;;;1.30;1.27;;;;;;;19.60;31.24;103952.69;5054496;28;20044;-74
2023/02/08 04:53:07;;;;;;;1.52;1.42;;;;;;;19.56;31.18;103959.09;5056993;28;20036;-74
2023/02/08 04:55:32;;;;;;;1.42;1.40;;;;;;;19.49;31.14;103955.16;5054409;28;20453;-74
2023/02/08 04:57:58;;;;;;;1.27;1.27;;;;;;;19.50;31.33;103951.56;5050895;28;20047;-74
2023/02/08 05:00:23;;;;;;;1.38;1.38;;;;;;;19.55;31.32;103952.13;5056790;28;20045;-74
2023/02/08 05:02:53;;;;;;;1.17;1.17;;;;;;;19.53;31.21;103959.28;5056707;28;20036;-74
2023/02/08 05:05:19;;;;;;;1.50;1.40;;;;;;;19.53;31.24;103950.50;5056845;28;20045;-74
2023/02/08 05:07:44;;;;;;;1.45;1.35;;;;;;;19.53;31.23;103948.69;5057204;28;20101;-74
2023/02/08 05:10:10;;;;;;;1.58;1.48;;;;;;;19.49;31.40;103951.66;5054780;28;20049;-75
2023/02/08 05:12:35;;;;;;;1.52;1.42;;;;;;;19.39;31.56;103955.84;5058234;28;20036;-74
2023/02/08 05:15:01;;;;;;;1.30;1.30;;;;;;;19.45;31.55;103953.66;5057113;28;20417;-74
2023/02/08 05:17:26;;;;;;;1.23;1.23;;;;;;;19.46;31.39;103950.06;5062844;28;20040;-74
2023/02/08 05:19:52;;;;;;;1.58;1.52;;;;;;;19.46;31.33;103949.22;5057285;28;20071;-74
2023/02/08 05:22:17;;;;;;;1.50;1.40;;;;;;;19.44;31.48;103951.13;5060505;28;20070;-74
2023/02/08 05:24:43;;;;;;;1.60;1.50;;;;;;;19.42;31.48;103943.31;5057819;28;20494;-74
2023/02/08 05:27:08;;;;;;;1.20;1.20;;;;;;;19.47;31.33;103942.97;5059368;28;20300;-74
2023/02/08 05:29:34;;;;;;;1.20;1.20;;;;;;;19.42;31.59;103953.03;5058223;28;20040;-74
2023/02/08 05:31:59;;;;;;;1.20;1.20;;;;;;;19.49;31.53;103951.66;5056046;28;20052;-74
2023/02/08 05:34:25;;;;;;;1.38;1.30;;;;;;;19.45;31.63;103953.66;5062534;28;20040;-74
2023/02/08 05:36:50;;;;;;;1.10;1.10;;;;;;;19.45;31.61;103968.66;5061178;28;20044;-73
2023/02/08 05:39:16;;;;;;;1.08;1.08;;;;;;;19.38;31.57;103964.72;5057950;28;20032;-74
2023/02/08 05:41:41;;;;;;;1.00;1.00;;;;;;;19.48;31.54;103956.09;5056123;28;20036;-74
2023/02/08 05:44:07;;;;;;;0.90;0.90;;;;;;;19.38;31.66;103947.06;5057983;28;20036;-74
2023/02/08 05:46:32;;;;;;;1.02;1.02;;;;;;;19.44;31.54;103953.75;5060195;28;20040;-75
2023/02/08 05:48:58;;;;;;;0.73;0.73;;;;;;;19.36;31.68;103950.75;5058106;28;20147;-74
2023/02/08 05:51:24;;;;;;;1.42;1.33;;;;;;;19.40;31.63;103958.41;5056202;28;20043;-74
2023/02/08 05:53:49;;;;;;;1.05;1.05;;;;;;;19.39;31.65;103947.91;5060959;28;20494;-74
2023/02/08 05:56:15;;;;;;;1.38;1.30;;;;;;;19.36;31.61;103953.41;5057224;28;20040;-74
2023/02/08 05:58:40;;;;;;;1.08;1.08;;;;;;;19.38;31.61;103951.50;5059453;28;20494;-74
2023/02/08 06:01:10;;;;;;;1.00;1.00;;;;;;;19.28;31.70;103951.28;5054047;28;20094;-74
2023/02/08 06:03:37;;;;;;;1.42;1.35;;;;;;;19.37;31.76;103950.66;5040460;28;20028;-74
2023/02/08 06:06:03;;;;;;;1.20;1.20;;;;;;;19.35;31.63;103954.34;5054245;28;20137;-74
2023/02/08 06:08:29;;;;;;;1.52;1.42;;;;;;;19.36;31.67;103958.69;5056943;28;20471;-74
2023/02/08 06:10:54;;;;;;;1.20;1.20;;;;;;;19.40;31.49;103955.78;5062277;28;20048;-74
2023/02/08 06:13:20;;;;;;;1.30;1.20;;;;;;;19.33;31.78;103957.09;5056680;28;20049;-74
2023/02/08 06:15:45;;;;;;;1.17;1.17;;;;;;;19.27;31.80;103949.59;5059838;28;20368;-74
2023/02/08 06:18:11;;;;;;;1.15;1.15;;;;;;;19.29;31.61;103966.19;5061501;28;20029;-74
2023/02/08 06:20:37;;;;;;;1.20;1.20;;;;;;;19.29;31.62;103966.19;5059935;28;20767;-74
2023/02/08 06:23:03;;;;;;;1.30;1.30;;;;;;;19.29;31.73;103964.38;5052609;28;20520;-75
2023/02/08 06:25:28;;;;;;;1.23;1.23;;;;;;;19.17;31.83;103967.81;5062877;28;20371;-74
2023/02/08 06:27:54;;;;;;;1.30;1.30;;;;;;;19.27;31.73;103954.88;5061580;28;20507;-74
2023/02/08 06:30:19;;;;;;;0.90;0.90;;;;;;;19.28;31.65;103964.50;5061193;28;20036;-74
2023/02/08 06:32:45;;;;;;;1.30;1.30;;;;;;;19.23;31.68;103959.53;5058382;28;20040;-74
2023/02/08 06:35:10;;;;;;;1.27;1.27;;;;;;;19.23;31.59;103945.47;5055962;28;20147;-72
2023/02/08 06:37:36;;;;;;;1.23;1.23;;;;;;;19.30;31.76;103947.59;5061156;28;20094;-73
2023/02/08 06:40:02;;;;;;;1.15;1.10;;;;;;;20.19;30.66;103945.09;5062407;28;20663;-74
2023/02/08 06:42:28;;;;;;;1.20;1.20;;;;;;;21.37;29.15;103945.44;5057771;28;20090;-74
2023/02/08 06:44:54;;;;;;;1.15;1.15;;;;;;;22.13;27.86;103945.84;5058680;28;20691;-74
2023/02/08 06:47:24;;;;;;;1.10;1.10;;;;;;;22.63;27.38;103954.28;5064552;28;20482;-74
2023/02/08 06:49:50;;;;;;;1.30;1.30;;;;;;;22.78;27.11;103950.34;5068133;28;20092;-74
2023/02/08 06:52:16;;;;;;;1.20;1.20;;;;;;;22.52;27.23;103953.31;5067992;28;20119;-74
2023/02/08 06:54:42;;;;;;;1.00;1.00;;;;;;;22.21;27.80;103952.22;5060570;28;20135;-74
2023/02/08 06:57:07;;;;;;;1.10;1.10;;;;;;;21.91;28.45;103952.81;5066496;28;20063;-74
2023/02/08 06:59:33;;;;;;;1.23;1.23;;;;;;;21.71;28.55;103953.44;5057598;28;20537;-74
2023/02/08 07:01:59;;;;;;;1.10;1.10;;;;;;;21.38;29.15;103956.88;5057562;28;20040;-76
2023/02/08 07:04:24;;;;;;;1.10;1.10;;;;;;;21.30;29.32;103957.41;5060209;28;20437;-74
2023/02/08 07:06:50;;;;;;;1.27;1.27;;;;;;;21.10;29.45;103956.22;5066111;28;20429;-74
2023/02/08 07:09:16;;;;;;;0.90;0.90;;;;;;;20.96;29.42;103959.03;5059298;28;20146;-74
2023/02/08 07:11:42;;;;;;;0.95;0.95;;;;;;;20.81;29.96;103946.88;5059930;28;20119;-74
2023/02/08 07:14:12;;;;;;;1.17;1.17;;;;;;;20.73;30.22;103955.41;5064111;28;20040;-74
2023/02/08 07:16:37;;;;;;;1.50;1.40;;;;;;;21.05;29.87;103949.56;5059675;28;20048;-74
2023/02/08 07:19:03;;;;;;;1.23;0.98;;;;;;;21.88;28.79;103947.69;5058612;28;20052;-74
2023/02/08 07:21:29;;;;;;;1.08;1.08;;;;;;;22.58;27.46;103946.66;5061124;28;20053;-73
2023/02/08 07:23:54;;;;;;;1.02;1.02;;;;;;;22.93;27.16;103946.50;5054348;28;20044;-74
2023/02/08 07:26:19;;;;;;;0.90;0.90;;;;;;;22.87;26.94;103937.22;5059009;28;20410;-71
2023/02/08 07:28:45;;;;;;;1.17;1.08;;;;;;;22.67;27.55;103940.63;5058090;28;20055;-72
2023/02/08 07:31:14;;;;;;;1.10;1.05;;;;;;;22.34;27.89;103938.84;5056628;28;20048;-72
2023/02/08 07:33:40;;;;;;;0.98;0.98;;;;;;;22.08;28.28;103940.03;5058673;28;20064;-72
2023/02/08 07:36:07;;;;;;;1.00;1.00;;;;;;;21.82;28.83;103929.63;5057349;28;20044;-72
2023/02/08 07:38:33;;;;;;;1.02;1.02;;;;;;;21.59;28.90;103926.09;5060525;28;20125;-72
2023/02/08 07:41:01;;;;;;;0.80;0.80;;;;;;;21.45;29.39;103920.97;5059869;28;20150;-72
2023/02/08 07:43:26;;;;;;;1.00;1.00;;;;;;;21.33;29.32;103927.19;5058788;28;20048;-72
2023/02/08 07:45:57;;;;;;;1.20;1.20;;;;;;;21.22;29.71;103927.97;5058871;28;20538;-72
2023/02/08 07:48:23;;;;;;;0.95;0.95;;;;;;;21.05;29.81;103921.28;5060556;28;20040;-72
2023/02/08 07:50:48;;;;;;;1.40;1.33;;;;;;;20.97;30.16;103926.28;5058567;28;20044;-72
2023/02/08 07:53:14;;;;;;;1.00;1.00;;;;;;;20.78;30.27;103928.56;5058592;28;20039;-72
2023/02/08 07:55:40;;;;;;;1.33;1.23;;;;;;;20.69;30.52;103918.66;5059398;28;20542;-72
2023/02/08 07:58:05;;;;;;;1.15;1.15;;;;;;;20.63;30.76;103924.38;5055520;28;20052;-71
2023/02/08 08:00:31;;;;;;;2.17;1.75;;;;;;;20.10;30.93;103919.25;5057750;28;20028;-74
2023/02/08 08:02:57;;;;;;;4.65;1.40;;;;;;;20.15;31.36;103903.09;5056517;28;20036;-74
2023/02/08 08:05:22;;;;;;;1.60;1.50;;;;;;;20.17;31.21;103909.09;5055542;28;20056;-75
2023/02/08 08:07:48;;;;;;;1.70;1.30;;;;;;;20.12;31.41;103898.84;5059712;28;20040;-75
2023/02/08 08:10:13;;;;;;;1.40;1.30;;;;;;;20.29;31.00;103900.31;5057288;28;20467;-73
2023/02/08 08:12:39;;;;;;;1.15;1.15;;;;;;;20.60;30.83;103891.03;5055211;28;20106;-71
2023/02/08 08:15:05;;;;;;;1.20;1.20;;;;;;;20.85;30.48;103883.97;5059253;28;20040;-71
2023/02/08 08:17:30;;;;;;;1.30;1.30;;;;;;;21.21;29.93;103885.69;5054189;28;20060;-72
2023/02/08 08:19:56;;;;;;;1.65;1.20;;;;;;;21.18;29.90;103883.25;5054911;28;20040;-71
2023/02/08 08:22:21;;;;;;;1.00;1.00;;;;;;;21.06;30.44;103874.44;5056993;28;20129;-72
2023/02/08 08:24:47;;;;;;;1.10;1.10;;;;;;;21.04;30.08;103871.06;5049320;28;20048;-72
2023/02/08 08:27:12;;;;;;;1.00;1.00;;;;;;;20.98;30.33;103874.13;5055498;28;20406;-72
2023/02/08 08:29:38;;;;;;;0.88;0.88;;;;;;;20.94;30.54;103878.81;5055783;28;20060;-72
2023/02/08 08:32:04;;;;;;;1.05;1.00;;;;;;;20.88;30.75;103876.63;5056527;28;20898;-72
2023/02/08 08:34:30;;;;;;;1.05;1.05;;;;;;;20.82;30.73;103871.78;5058754;28;20041;-72
2023/02/08 08:36:56;;;;;;;1.00;1.00;;;;;;;20.77;30.75;103874.75;5050402;28;20045;-72
2023/02/08 08:39:22;;;;;;;1.00;1.00;;;;;;;20.70;30.87;103870.88;5059190;28;20131;-72
2023/02/08 08:41:48;;;;;;;1.30;1.05;;;;;;;20.66;31.13;103871.22;5058848;28;20050;-72
2023/02/08 08:44:13;;;;;;;1.10;1.10;;;;;;;20.65;31.15;103866.91;5060500;28;20070;-72
2023/02/08 08:46:39;;;;;;;1.15;1.15;;;;;;;20.61;31.22;103878.63;5054297;28;20040;-72
2023/02/08 08:49:04;;;;;;;1.10;1.10;;;;;;;20.61;31.05;103873.34;5055569;28;20394;-71
2023/02/08 08:51:34;;;;;;;1.20;1.20;;;;;;;20.58;31.06;103877.06;5056315;28;20074;-72
2023/02/08 08:54:00;;;;;;;1.13;1.13;;;;;;;20.58;31.08;103878.88;5057706;28;20033;-72
2023/02/08 08:56:26;;;;;;;1.10;1.10;;;;;;;20.56;31.34;103878.97;5059839;28;20041;-72
2023/02/08 08:58:51;;;;;;;0.95;0.95;;;;;;;20.54;31.40;103878.25;5058204;28;20120;-71
2023/02/08 09:01:17;;;;;;;1.23;1.23;;;;;;;20.56;31.48;103878.97;5054648;28;20047;-71
2023/02/08 09:03:42;;;;;;;1.38;1.27;;;;;;;20.51;31.34;103883.78;5058936;28;20134;-71
2023/02/08 09:06:08;;;;;;;0.93;0.93;;;;;;;20.48;31.39;103882.19;5057188;28;20037;-72
2023/02/08 09:08:33;;;;;;;1.05;1.05;;;;;;;20.52;31.13;103891.59;5056366;28;20036;-71
2023/02/08 09:11:13;;;;;;;1.67;1.30;;;;;;;20.46;31.38;103899.13;5057828;28;20044;-72
2023/02/08 09:13:39;;;;;;;;;;;;;;;20.46;31.45;103897.31;5073880;28;20052;-72
2023/02/08 09:16:11;;;;;;;1.60;1.50;;;;;;;20.69;31.00;103894.84;5055200;28;19916;-71
2023/02/08 09:18:37;;;;;;;1.10;1.10;;;;;;;21.30;30.14;103875.25;5054256;28;20150;-71
2023/02/08 09:21:20;;;;;;;1.20;1.20;;;;;;;22.02;29.20;103897.06;5059021;28;20040;-71
2023/02/08 09:23:46;;;;;;;1.10;1.10;;;;;;;21.98;28.91;103892.97;5055030;28;20040;-71
2023/02/08 09:26:14;;;;;;;1.00;1.00;;;;;;;21.80;29.39;103893.56;5057001;28;20486;-71
2023/02/08 09:28:40;;;;;;;0.88;0.88;;;;;;;21.66;29.66;103894.63;5048564;28;20041;-71
2023/02/08 09:31:20;;;;;;;0.85;0.85;;;;;;;21.51;29.71;103893.97;5058638;28;20049;-71
2023/02/08 09:33:47;;;;;;;1.10;1.10;;;;;;;21.28;30.20;103889.59;5058370;28;20573;-71
2023/02/08 09:36:13;;;;;;;1.15;1.05;;;;;;;21.21;30.28;103909.53;5058760;28;20043;-71
2023/02/08 09:38:40;;;;;;;1.27;1.20;;;;;;;21.11;30.26;103906.72;5052841;28;20095;-72
2023/02/08 09:41:14;;;;;;;1.30;1.17;;;;;;;21.08;30.61;103905.16;5055644;28;20029;-73
2023/02/08 09:43:53;;;;;;;1.30;1.30;;;;;;;21.04;30.56;103906.34;5062279;28;20520;-73
2023/02/08 09:46:25;;;;;;;1.00;0.95;;;;;;;20.97;30.72;103912.19;5057087;28;20508;-73
2023/02/08 09:48:55;;;;;;;1.40;1.30;;;;;;;20.96;30.71;103905.19;5059885;28;20044;-72
2023/02/08 09:51:20;;;;;;;1.20;1.20;;;;;;;20.88;30.80;103913.72;5058600;28;20040;-71
2023/02/08 09:53:51;;;;;;;1.45;1.35;;;;;;;20.78;30.99;103912.69;5060850;28;20032;-72
2023/02/08 09:56:28;;;;;;;1.13;1.13;;;;;;;20.78;30.94;103910.03;5052374;28;20145;-72
2023/02/08 09:58:55;;;;;;;1.58;1.48;;;;;;;20.71;30.93;103903.50;5064156;28;20102;-72
2023/02/08 10:01:32;;;;;;;1.33;1.23;;;;;;;20.69;31.15;103911.56;5058499;28;20037;-72
2023/02/08 10:04:25;;;;;;;0.98;0.98;;;;;;;20.66;31.30;103914.44;5062036;28;20122;-73
2023/02/08 10:06:51;;;;;;;1.10;1.10;;;;;;;20.66;31.18;103913.59;5057708;28;20044;-75
2023/02/08 10:09:23;;;;;;;1.40;1.30;;;;;;;20.63;31.01;103903.19;5056944;28;20049;-72
2023/02/08 10:11:58;;;;;;;1.17;1.17;;;;;;;20.69;31.08;103922.16;5059716;28;20592;-73
2023/02/08 10:14:56;;;;;;;1.45;1.35;;;;;;;20.64;31.02;103926.91;5060614;28;20048;-72
2023/02/08 10:18:12;;;;;;;1.63;1.52;;;;;;;20.51;31.15;103920.84;5058577;28;20363;-73
2023/02/08 10:20:59;;;;;;;1.40;1.30;;;;;;;20.62;31.03;103923.53;5043512;28;20754;-73
2023/02/08 10:24:17;;;;;;;1.10;1.10;;;;;;;20.60;31.04;103922.81;5056738;28;20036;-72
2023/02/08 10:26:54;;;;;;;1.10;1.10;;;;;;;20.57;31.11;103920.38;5026034;28;20362;-72
2023/02/08 10:29:52;;;;;;;1.40;1.30;;;;;;;20.72;30.99;103929.03;5052130;28;20098;-72
2023/02/08 10:32:44;;;;;;;1.25;1.15;;;;;;;20.99;30.34;103907.63;5014406;28;20055;-71
2023/02/08 10:35:11;;;;;;;1.15;1.05;;;;;;;21.43;29.99;103909.63;5057626;28;20431;-71
2023/02/08 10:37:40;;;;;;;0.90;0.90;;;;;;;21.48;29.67;103914.59;5060975;28;20036;-72
2023/02/08 10:40:19;;;;;;;1.20;1.20;;;;;;;21.32;30.21;103907.78;5066704;28;20119;-72
2023/02/08 10:42:51;;;;;;;1.05;1.05;;;;;;;21.22;30.23;103908.59;5065067;28;20129;-72
2023/02/08 10:45:28;;;;;;;1.05;1.05;;;;;;;21.08;30.41;103909.59;5062082;28;20045;-72
2023/02/08 10:47:57;;;;;;;1.30;1.25;;;;;;;20.96;30.80;103897.25;5059194;28;20119;-72
2023/02/08 10:50:34;;;;;;;0.82;0.82;;;;;;;20.95;30.57;103899.06;5059522;28;20040;-72
2023/02/08 10:52:59;;;;;;;1.13;1.10;;;;;;;20.84;30.90;103900.81;5058316;28;20031;-72
2023/02/08 10:55:25;;;;;;;1.02;1.02;;;;;;;20.73;31.18;103898.94;5065268;28;20036;-72
2023/02/08 10:57:57;;;;;;;1.20;1.20;;;;;;;20.66;31.24;103892.41;5060746;28;20545;-72
2023/02/08 11:00:30;;;;;;;0.90;0.90;;;;;;;20.64;30.93;103887.19;5060473;28;20056;-72
2023/02/08 11:03:00;;;;;;;1.10;1.10;;;;;;;20.52;31.42;103896.91;5058757;28;20043;-72
2023/02/08 11:05:36;;;;;;;1.10;1.10;;;;;;;20.66;31.10;103887.97;5061272;28;20033;-72
2023/02/08 11:08:08;;;;;;;1.10;1.10;;;;;;;20.69;31.04;103882.44;5063168;28;20036;-72
2023/02/08 11:10:35;;;;;;;1.42;1.33;;;;;;;20.66;31.09;103881.81;5058108;28;20045;-72
2023/02/08 11:13:12;;;;;;;0.98;0.98;;;;;;;20.61;31.18;103871.53;5054934;28;20032;-72
2023/02/08 11:15:59;;;;;;;1.00;1.00;;;;;;;20.50;31.21;103866.19;5057278;28;20044;-72
2023/02/08 11:18:30;;;;;;;1.45;1.38;;;;;;;20.48;31.10;103857.53;5060754;28;20363;-72
2023/02/08 11:21:01;;;;;;;1.20;1.20;;;;;;;20.53;31.25;103858.03;5064750;28;20101;-71
2023/02/08 11:23:39;;;;;;;1.00;1.00;;;;;;;20.38;31.41;103856.44;5062210;28;20514;-72
2023/02/08 11:26:35;;;;;;;1.23;1.23;;;;;;;20.42;31.23;103844.72;5062298;28;20054;-72
2023/02/08 11:29:04;;;;;;;1.40;1.35;;;;;;;20.44;31.34;103856.88;5057258;28;20051;-72
2023/02/08 11:31:31;;;;;;;1.13;1.13;;;;;;;20.42;31.32;103842.91;5054207;28;20055;-72
2023/02/08 11:34:02;;;;;;;1.33;1.23;;;;;;;20.33;31.42;103843.56;5059370;28;20051;-72
2023/02/08 11:36:30;;;;;;;1.00;1.00;;;;;;;20.39;31.36;103845.75;5055007;28;20044;-72
2023/02/08 11:39:00;;;;;;;1.50;1.40;;;;;;;20.27;31.35;103841.34;5061111;28;20028;-72
2023/02/08 11:41:25;;;;;;;1.35;1.25;;;;;;;20.20;31.60;103834.81;5054788;28;20033;-72
2023/02/08 11:44:06;;;;;;;1.20;1.10;;;;;;;20.14;31.50;103833.44;5065674;28;20636;-72